Terminal Aerodrome Forecast
Issued by NWS

Home | Current Version | Previous Version | Graphics & Text | Print | Product List | Glossary Off
Versions: 1 2 3 4 5 6 7 8 9 10 11 12 13 14 15 16 17

102
FTUS41 KCLE 012342
TAFFDY
TAF
KFDY 012342Z 0200/0224 04012KT 6SM HZ OVC007
     FM020230 06012KT 4SM -SHRA BR OVC007
     FM020400 06008KT 2SM -SHRA BR OVC004
     FM020900 02008KT 4SM BR OVC004
     FM021600 04008KT P6SM OVC006
     FM022000 06006KT P6SM OVC012=

USA.gov is the U.S. government's official web portal to all federal, state and local government web resources and services.